createdAt,value
2022-08-29T00:00:52.672Z,99.90
2022-08-29T00:03:21.593Z,99.90
2022-08-29T00:05:51.596Z,99.90
2022-08-29T00:08:20.419Z,99.90
2022-08-29T00:10:49.633Z,99.90
2022-08-29T00:13:18.491Z,99.90
2022-08-29T00:15:47.744Z,99.90
2022-08-29T00:18:20.045Z,99.90
2022-08-29T00:20:49.401Z,99.90
2022-08-29T00:23:18.528Z,99.90
2022-08-29T00:25:47.588Z,99.90
2022-08-29T00:28:16.664Z,99.90
2022-08-29T00:30:45.585Z,99.90
2022-08-29T00:33:14.598Z,99.90
2022-08-29T00:35:46.427Z,99.90
2022-08-29T00:38:18.210Z,99.90
2022-08-29T00:40:52.313Z,99.90
2022-08-29T00:43:24.733Z,99.90
2022-08-29T00:46:02.313Z,99.90
2022-08-29T00:48:31.558Z,99.90
2022-08-29T00:51:06.564Z,99.90
2022-08-29T00:53:40.143Z,99.90
2022-08-29T00:56:11.111Z,99.90
2022-08-29T00:58:46.332Z,99.90
2022-08-29T01:01:15.445Z,99.90
2022-08-29T01:03:44.726Z,99.90
2022-08-29T01:06:15.957Z,99.90
2022-08-29T01:08:45.649Z,99.90
2022-08-29T01:11:34.316Z,99.90
2022-08-29T01:14:04.407Z,99.90
2022-08-29T01:16:33.579Z,99.90
2022-08-29T01:19:08.513Z,99.90
2022-08-29T01:21:42.755Z,99.90
2022-08-29T01:24:26.366Z,99.90
2022-08-29T01:26:55.233Z,99.90
2022-08-29T01:29:24.022Z,99.90
2022-08-29T01:31:57.689Z,99.90
2022-08-29T01:34:29.601Z,99.90
2022-08-29T01:37:00.400Z,99.90
2022-08-29T01:39:33.964Z,99.90
2022-08-29T01:42:05.150Z,99.90
2022-08-29T01:44:34.792Z,99.90
2022-08-29T01:47:05.259Z,99.90
2022-08-29T01:49:40.894Z,99.90
2022-08-29T01:52:10.229Z,99.90
2022-08-29T01:54:41.749Z,99.90
2022-08-29T01:57:13.136Z,99.90
2022-08-29T01:59:42.468Z,99.90
2022-08-29T02:02:16.458Z,99.90
2022-08-29T02:04:47.294Z,99.90
2022-08-29T02:07:18.319Z,99.90
2022-08-29T02:09:49.387Z,99.90
2022-08-29T02:12:18.381Z,99.90
2022-08-29T02:14:47.284Z,99.90
2022-08-29T02:17:16.156Z,99.90
2022-08-29T02:19:46.057Z,99.90
2022-08-29T02:22:15.410Z,99.90
2022-08-29T02:24:44.584Z,99.90
2022-08-29T02:27:15.133Z,99.90
2022-08-29T02:29:43.993Z,99.90
2022-08-29T02:32:14.987Z,99.90
2022-08-29T02:34:47.489Z,99.90
2022-08-29T02:37:18.237Z,99.90
2022-08-29T02:39:47.061Z,99.90
2022-08-29T02:42:17.460Z,99.90
2022-08-29T02:44:46.292Z,99.90
2022-08-29T02:47:15.144Z,99.90
2022-08-29T02:49:43.995Z,99.90
2022-08-29T02:52:13.000Z,99.90
2022-08-29T02:54:41.818Z,99.90
2022-08-29T02:57:10.624Z,99.90
2022-08-29T02:59:40.887Z,99.90
2022-08-29T03:02:09.978Z,99.90
2022-08-29T03:04:38.888Z,99.90
2022-08-29T03:07:07.762Z,99.90
2022-08-29T03:09:36.684Z,99.90
2022-08-29T03:12:05.859Z,99.90
2022-08-29T03:14:34.715Z,99.90
2022-08-29T03:17:05.568Z,99.90
2022-08-29T03:19:37.256Z,99.90
2022-08-29T03:22:06.709Z,99.90
2022-08-29T03:24:36.305Z,99.90
2022-08-29T03:27:05.658Z,99.90
2022-08-29T03:29:34.831Z,99.90
2022-08-29T03:32:05.930Z,99.90
2022-08-29T03:34:35.315Z,99.90
2022-08-29T03:37:04.253Z,99.90
2022-08-29T03:39:36.409Z,99.90
2022-08-29T03:42:06.295Z,99.90
2022-08-29T03:44:36.224Z,99.90
2022-08-29T03:47:08.492Z,99.90
2022-08-29T03:49:37.764Z,99.90
2022-08-29T03:52:09.485Z,99.90
2022-08-29T03:54:38.545Z,99.90
2022-08-29T03:57:07.882Z,99.90
2022-08-29T03:59:36.973Z,99.90
2022-08-29T04:02:07.470Z,99.90
2022-08-29T04:04:54.153Z,99.90
2022-08-29T04:07:22.753Z,99.90
2022-08-29T04:09:51.430Z,99.90
2022-08-29T04:12:21.049Z,99.90
2022-08-29T04:14:49.618Z,99.90
2022-08-29T04:17:19.933Z,99.90
2022-08-29T04:19:48.710Z,99.90
2022-08-29T04:22:17.536Z,99.90
2022-08-29T04:24:46.386Z,99.90
2022-08-29T04:27:15.192Z,99.90
2022-08-29T04:29:48.379Z,99.90
2022-08-29T04:32:17.819Z,99.90
2022-08-29T04:34:48.247Z,99.90
2022-08-29T04:37:17.109Z,99.90
2022-08-29T04:39:45.749Z,99.90
2022-08-29T04:42:19.549Z,99.90
2022-08-29T04:44:49.463Z,99.90
2022-08-29T04:47:18.301Z,99.90
2022-08-29T04:49:49.842Z,99.90
2022-08-29T04:52:23.947Z,99.90
2022-08-29T04:54:52.789Z,99.90
2022-08-29T04:57:23.096Z,99.90
2022-08-29T04:59:55.763Z,99.90
2022-08-29T05:02:27.214Z,99.90
2022-08-29T05:04:57.974Z,99.90
2022-08-29T05:07:27.748Z,99.90
2022-08-29T05:09:59.130Z,99.90
2022-08-29T05:12:28.855Z,99.90
2022-08-29T05:14:58.718Z,99.90
2022-08-29T05:17:27.854Z,99.90
2022-08-29T05:19:58.508Z,99.90
2022-08-29T05:22:27.636Z,99.90
2022-08-29T05:24:57.069Z,99.90
2022-08-29T05:27:25.825Z,99.90
2022-08-29T05:29:55.091Z,99.90
2022-08-29T05:32:24.780Z,99.90
2022-08-29T05:34:53.572Z,99.90
2022-08-29T05:37:24.155Z,99.90
2022-08-29T05:39:53.104Z,99.90
2022-08-29T05:42:23.407Z,99.90
2022-08-29T05:44:52.705Z,99.90
2022-08-29T05:47:21.993Z,99.90
2022-08-29T05:49:50.856Z,99.90
2022-08-29T05:52:21.759Z,99.90
2022-08-29T05:54:52.440Z,99.90
2022-08-29T05:57:23.572Z,99.90
2022-08-29T05:59:54.699Z,99.90
2022-08-29T06:02:25.171Z,99.90
2022-08-29T06:04:54.526Z,99.90
2022-08-29T06:07:23.531Z,99.90
2022-08-29T06:09:54.156Z,99.90
2022-08-29T06:12:32.698Z,99.90
2022-08-29T06:15:01.657Z,99.90
2022-08-29T06:17:30.931Z,99.90
2022-08-29T06:19:59.817Z,99.90
2022-08-29T06:22:28.757Z,99.90
2022-08-29T06:24:59.218Z,99.90
2022-08-29T06:27:28.374Z,99.90
2022-08-29T06:30:01.239Z,99.90
2022-08-29T06:32:30.740Z,99.90
2022-08-29T06:34:59.606Z,99.90
2022-08-29T06:37:28.483Z,99.90
2022-08-29T06:39:58.974Z,99.90
2022-08-29T06:42:27.878Z,99.90
2022-08-29T06:44:57.890Z,99.90
2022-08-29T06:47:26.737Z,99.90
2022-08-29T06:49:55.579Z,99.90
2022-08-29T06:52:24.487Z,99.90
2022-08-29T06:54:53.374Z,99.90
2022-08-29T06:57:23.996Z,99.90
2022-08-29T06:59:52.792Z,99.90
2022-08-29T07:02:21.566Z,99.90
2022-08-29T07:04:50.516Z,99.90
2022-08-29T07:07:19.270Z,99.90
2022-08-29T07:09:48.055Z,99.90
2022-08-29T07:12:16.768Z,99.90
2022-08-29T07:14:47.139Z,99.90
2022-08-29T07:17:20.880Z,99.90
2022-08-29T07:19:55.421Z,99.90
2022-08-29T07:22:26.235Z,99.90
2022-08-29T07:24:56.020Z,99.90
2022-08-29T07:27:24.842Z,99.90
2022-08-29T07:29:55.311Z,99.90
2022-08-29T07:32:25.969Z,99.90
2022-08-29T07:34:56.269Z,99.90
2022-08-29T07:37:25.628Z,99.90
2022-08-29T07:39:54.550Z,99.90
2022-08-29T07:42:23.419Z,99.90
2022-08-29T07:44:52.301Z,99.90
2022-08-29T07:47:26.647Z,99.90
2022-08-29T07:49:55.624Z,99.90
2022-08-29T07:52:24.610Z,99.90
2022-08-29T07:54:53.476Z,99.90
2022-08-29T07:57:22.423Z,99.90
2022-08-29T07:59:51.245Z,99.90
2022-08-29T08:02:21.551Z,99.90
2022-08-29T08:04:52.410Z,99.90
2022-08-29T08:07:21.678Z,99.90
2022-08-29T08:09:58.244Z,99.90
2022-08-29T08:12:27.174Z,99.90
2022-08-29T08:14:56.961Z,99.90
2022-08-29T08:17:27.544Z,99.90
2022-08-29T08:19:56.081Z,99.90
2022-08-29T08:22:24.945Z,99.90
2022-08-29T08:24:53.659Z,99.90
2022-08-29T08:27:22.282Z,99.90
2022-08-29T08:29:50.982Z,99.90
2022-08-29T08:32:19.764Z,99.90
2022-08-29T08:34:49.661Z,99.90
2022-08-29T08:37:27.743Z,99.90
2022-08-29T08:39:57.882Z,99.90
2022-08-29T08:42:42.305Z,99.90
2022-08-29T08:45:13.018Z,99.90
2022-08-29T08:47:44.988Z,99.90
2022-08-29T08:50:20.698Z,99.90
2022-08-29T08:52:54.827Z,99.90
2022-08-29T08:55:33.394Z,99.90
2022-08-29T08:58:13.599Z,99.90
2022-08-29T09:00:46.905Z,99.90
2022-08-29T09:03:48.462Z,99.90
2022-08-29T09:06:27.096Z,99.90
2022-08-29T09:09:05.434Z,99.90
2022-08-29T09:11:47.767Z,99.90
2022-08-29T09:14:33.718Z,99.90
2022-08-29T09:17:04.380Z,99.90
2022-08-29T09:19:33.826Z,99.90
2022-08-29T09:22:18.838Z,99.90
2022-08-29T09:24:51.938Z,99.90
2022-08-29T09:27:21.899Z,99.90
2022-08-29T09:29:55.175Z,99.90
2022-08-29T09:32:24.263Z,99.90
2022-08-29T09:35:09.833Z,99.90
2022-08-29T09:37:40.521Z,99.90
2022-08-29T09:40:12.550Z,99.90
2022-08-29T09:42:50.652Z,99.90
2022-08-29T09:45:22.124Z,99.90
2022-08-29T09:47:51.156Z,99.90
2022-08-29T09:50:26.046Z,99.90
2022-08-29T09:52:58.288Z,99.90
2022-08-29T09:55:32.352Z,99.90
2022-08-29T09:58:04.248Z,99.90
2022-08-29T10:00:36.067Z,99.90
2022-08-29T10:03:09.015Z,99.90
2022-08-29T10:05:44.399Z,99.90
2022-08-29T10:08:33.962Z,99.90
2022-08-29T10:11:05.339Z,99.90
2022-08-29T10:13:41.860Z,99.90
2022-08-29T10:16:18.959Z,99.90
2022-08-29T10:18:51.736Z,99.90
2022-08-29T10:21:31.071Z,99.90
2022-08-29T10:24:19.695Z,99.90
2022-08-29T10:26:57.480Z,99.90
2022-08-29T10:29:41.997Z,99.90
2022-08-29T10:32:17.850Z,99.90
2022-08-29T10:35:03.046Z,99.90
2022-08-29T10:37:42.021Z,99.90
2022-08-29T10:40:19.860Z,99.90
2022-08-29T10:42:51.779Z,99.90
2022-08-29T10:45:30.836Z,99.90
2022-08-29T10:48:07.118Z,99.90
2022-08-29T10:50:44.969Z,99.90
2022-08-29T10:53:20.096Z,99.90
2022-08-29T10:56:01.065Z,99.70
2022-08-29T10:58:44.638Z,99.90
2022-08-29T11:01:22.386Z,99.90
2022-08-29T11:03:58.882Z,98.90
2022-08-29T11:06:32.863Z,98.40
2022-08-29T11:09:11.071Z,98.70
2022-08-29T11:11:46.827Z,97.00
2022-08-29T11:14:24.883Z,95.10
2022-08-29T11:16:56.116Z,95.30
2022-08-29T11:19:32.095Z,94.80
2022-08-29T11:22:06.668Z,95.80
2022-08-29T11:24:38.150Z,94.90
2022-08-29T11:27:14.532Z,94.60
2022-08-29T11:29:53.423Z,95.10
2022-08-29T11:32:30.144Z,92.00
2022-08-29T11:35:11.430Z,92.60
2022-08-29T11:38:15.484Z,94.00
2022-08-29T11:43:55.406Z,94.60
2022-08-29T11:46:37.802Z,95.70
2022-08-29T11:49:36.138Z,96.10
2022-08-29T11:52:27.425Z,96.70
2022-08-29T11:55:28.898Z,94.90
2022-08-29T11:58:05.097Z,94.90
2022-08-29T12:00:51.438Z,96.60
2022-08-29T12:03:57.342Z,95.80
2022-08-29T12:06:52.540Z,95.30
2022-08-29T12:09:55.167Z,96.00
2022-08-29T12:12:45.642Z,94.10
2022-08-29T12:15:47.289Z,94.30
2022-08-29T12:18:36.935Z,95.90
2022-08-29T12:21:45.743Z,95.50
2022-08-29T12:24:43.033Z,95.80
2022-08-29T12:28:31.236Z,96.30
2022-08-29T12:31:18.513Z,96.60
2022-08-29T12:34:06.392Z,97.10
2022-08-29T12:36:52.556Z,97.20
2022-08-29T12:39:38.348Z,95.70
2022-08-29T12:42:20.903Z,95.00
2022-08-29T12:45:00.863Z,94.40
2022-08-29T12:47:34.470Z,96.10
2022-08-29T12:50:08.287Z,95.30
2022-08-29T12:52:39.194Z,95.10
2022-08-29T12:55:21.585Z,95.60
2022-08-29T12:57:50.470Z,95.50
2022-08-29T13:00:24.558Z,95.10
2022-08-29T13:03:03.967Z,95.80
2022-08-29T13:05:35.763Z,93.10
2022-08-29T13:08:11.104Z,93.80
2022-08-29T13:10:53.100Z,94.00
2022-08-29T13:13:23.925Z,93.40
2022-08-29T13:15:55.938Z,94.00
2022-08-29T13:18:25.030Z,93.70
2022-08-29T13:21:08.049Z,93.70
2022-08-29T13:23:39.139Z,94.10
2022-08-29T13:26:19.486Z,94.50
2022-08-29T13:28:52.189Z,94.10
2022-08-29T13:31:32.928Z,94.60
2022-08-29T13:34:09.696Z,95.20
2022-08-29T13:36:42.383Z,95.00
2022-08-29T13:39:40.534Z,95.80
2022-08-29T13:42:32.865Z,94.40
2022-08-29T13:45:13.756Z,94.00
2022-08-29T13:48:13.463Z,95.00
2022-08-29T13:50:42.425Z,94.00
2022-08-29T13:53:11.114Z,94.40
2022-08-29T13:55:42.845Z,94.40
2022-08-29T13:58:15.073Z,94.90
2022-08-29T14:00:44.889Z,95.60
2022-08-29T14:03:22.013Z,94.80
2022-08-29T14:05:54.270Z,94.70
2022-08-29T14:08:22.926Z,95.60
2022-08-29T14:10:51.571Z,97.60
2022-08-29T14:13:20.234Z,98.70
2022-08-29T14:15:49.170Z,99.90
2022-08-29T14:18:19.422Z,99.90
2022-08-29T14:20:47.980Z,99.90
2022-08-29T14:23:21.309Z,99.90
2022-08-29T14:25:52.148Z,99.90
2022-08-29T14:28:21.021Z,99.90
2022-08-29T14:30:52.095Z,99.90
2022-08-29T14:33:23.706Z,99.90
2022-08-29T14:35:53.116Z,99.90
2022-08-29T14:38:21.932Z,99.90
2022-08-29T14:40:51.200Z,99.90
2022-08-29T14:43:20.226Z,99.90
2022-08-29T14:45:49.103Z,99.40
2022-08-29T14:48:17.804Z,99.90
2022-08-29T14:50:48.233Z,99.90
2022-08-29T14:53:17.185Z,99.80
2022-08-29T14:55:46.019Z,99.90
2022-08-29T14:58:15.330Z,99.90
2022-08-29T15:00:44.365Z,99.90
2022-08-29T15:03:14.129Z,99.90
2022-08-29T15:05:43.852Z,99.90
2022-08-29T15:08:17.293Z,99.90
2022-08-29T15:10:46.560Z,99.90
2022-08-29T15:13:15.389Z,99.90
2022-08-29T15:15:44.315Z,99.90
2022-08-29T15:18:25.973Z,99.90
2022-08-29T15:21:03.521Z,99.90
2022-08-29T15:23:34.391Z,99.90
2022-08-29T15:26:03.083Z,99.90
2022-08-29T15:28:32.184Z,99.90
2022-08-29T15:31:00.844Z,99.90
2022-08-29T15:33:29.462Z,99.90
2022-08-29T15:35:58.265Z,99.90
2022-08-29T15:38:26.759Z,99.90
2022-08-29T15:40:57.382Z,99.90
2022-08-29T15:43:26.408Z,99.90
2022-08-29T15:45:59.142Z,99.90
2022-08-29T15:48:28.946Z,99.90
2022-08-29T15:50:57.764Z,99.90
2022-08-29T15:53:26.987Z,99.90
2022-08-29T15:55:57.234Z,99.90
2022-08-29T15:58:26.085Z,99.90
2022-08-29T16:00:54.668Z,99.90
2022-08-29T16:03:23.533Z,99.90
2022-08-29T16:05:52.428Z,99.90
2022-08-29T16:08:22.447Z,99.90
2022-08-29T16:10:59.615Z,99.90
2022-08-29T16:13:28.224Z,99.90
2022-08-29T16:15:56.808Z,99.90
2022-08-29T16:18:25.860Z,99.90
2022-08-29T16:20:56.713Z,99.90
2022-08-29T16:23:25.755Z,99.90
2022-08-29T16:25:54.262Z,99.90
2022-08-29T16:28:24.249Z,99.90
2022-08-29T16:30:53.425Z,99.90
2022-08-29T16:33:21.982Z,99.90
2022-08-29T16:35:50.525Z,99.90
2022-08-29T16:38:19.729Z,99.90
2022-08-29T16:40:48.479Z,99.90
2022-08-29T16:43:18.014Z,99.90
2022-08-29T16:45:48.021Z,99.90
2022-08-29T16:48:17.767Z,99.90
2022-08-29T16:50:47.507Z,99.90
2022-08-29T16:53:16.075Z,99.90
2022-08-29T16:55:45.032Z,99.90
2022-08-29T16:58:31.538Z,99.90
2022-08-29T17:01:02.056Z,99.90
2022-08-29T17:03:31.107Z,99.90
2022-08-29T17:05:59.770Z,99.90
2022-08-29T17:08:27.497Z,99.90
2022-08-29T17:10:55.723Z,99.90
2022-08-29T17:13:23.567Z,99.90
2022-08-29T17:15:51.684Z,99.90
2022-08-29T17:18:22.317Z,99.90
2022-08-29T17:20:52.804Z,99.90
2022-08-29T17:23:21.712Z,99.90
2022-08-29T17:25:50.638Z,99.90
2022-08-29T17:28:19.873Z,99.90
2022-08-29T17:30:49.227Z,99.90
2022-08-29T17:33:18.436Z,99.90
2022-08-29T17:35:50.036Z,99.90
2022-08-29T17:38:19.035Z,99.90
2022-08-29T17:40:49.022Z,99.90
2022-08-29T17:43:19.610Z,99.90
2022-08-29T17:45:49.012Z,99.90
2022-08-29T17:48:18.020Z,99.90
2022-08-29T17:50:49.461Z,99.90
2022-08-29T17:53:20.064Z,99.90
2022-08-29T17:55:51.035Z,99.90
2022-08-29T17:58:20.593Z,99.90
2022-08-29T18:00:50.595Z,99.90
2022-08-29T18:03:19.537Z,99.90
2022-08-29T18:05:50.033Z,99.90
2022-08-29T18:08:18.647Z,99.90
2022-08-29T18:10:47.581Z,99.90
2022-08-29T18:13:20.979Z,99.90
2022-08-29T18:15:50.705Z,99.90
2022-08-29T18:18:22.033Z,99.90
2022-08-29T18:20:52.492Z,99.90
2022-08-29T18:23:21.254Z,99.90
2022-08-29T18:25:49.834Z,99.90
2022-08-29T18:28:18.990Z,99.90
2022-08-29T18:30:48.121Z,99.90
2022-08-29T18:33:17.010Z,99.90
2022-08-29T18:35:45.585Z,99.90
2022-08-29T18:38:16.113Z,99.90
2022-08-29T18:40:44.856Z,99.90
2022-08-29T18:43:15.045Z,99.90
2022-08-29T18:45:43.944Z,99.90
2022-08-29T18:48:12.950Z,99.90
2022-08-29T18:50:43.212Z,99.90
2022-08-29T18:53:14.068Z,99.90
2022-08-29T18:55:51.140Z,99.90
2022-08-29T18:58:22.251Z,99.90
2022-08-29T19:00:51.531Z,99.90
2022-08-29T19:03:20.975Z,99.90
2022-08-29T19:05:52.300Z,99.90
2022-08-29T19:08:24.621Z,99.90
2022-08-29T19:10:55.548Z,99.90
2022-08-29T19:13:25.399Z,99.90
2022-08-29T19:15:54.631Z,99.90
2022-08-29T19:18:23.303Z,99.90
2022-08-29T19:21:02.671Z,99.90
2022-08-29T19:23:32.511Z,99.90
2022-08-29T19:26:03.515Z,99.90
2022-08-29T19:28:32.159Z,99.90
2022-08-29T19:31:02.322Z,99.90
2022-08-29T19:33:30.955Z,99.90
2022-08-29T19:35:59.496Z,99.90
2022-08-29T19:38:28.933Z,99.90
2022-08-29T19:40:59.206Z,99.90
2022-08-29T19:43:31.327Z,99.90
2022-08-29T19:46:02.211Z,99.90
2022-08-29T19:48:30.864Z,99.90
2022-08-29T19:50:59.720Z,99.90
2022-08-29T19:53:28.649Z,99.90
2022-08-29T19:55:57.929Z,99.90
2022-08-29T19:58:32.034Z,99.90
2022-08-29T20:01:02.873Z,99.90
2022-08-29T20:03:32.926Z,99.90
2022-08-29T20:06:06.144Z,99.90
2022-08-29T20:08:36.959Z,99.90
2022-08-29T20:11:06.554Z,99.90
2022-08-29T20:13:38.277Z,99.90
2022-08-29T20:16:12.314Z,99.90
2022-08-29T20:18:41.961Z,99.90
2022-08-29T20:21:11.871Z,99.90
2022-08-29T20:23:41.406Z,99.90
2022-08-29T20:26:19.192Z,99.90
2022-08-29T20:28:51.599Z,99.90
2022-08-29T20:31:20.952Z,99.90
2022-08-29T20:33:50.311Z,99.90
2022-08-29T20:36:38.972Z,99.90
2022-08-29T20:39:10.314Z,99.90
2022-08-29T20:41:39.538Z,99.90
2022-08-29T20:44:12.180Z,99.90
2022-08-29T20:46:42.383Z,99.90
2022-08-29T20:49:12.674Z,99.90
2022-08-29T20:51:44.137Z,99.90
2022-08-29T20:54:14.078Z,99.90
2022-08-29T20:56:43.265Z,99.90
2022-08-29T20:59:14.286Z,99.90
2022-08-29T21:01:43.566Z,99.90
2022-08-29T21:04:32.049Z,99.90
2022-08-29T21:07:04.566Z,99.90
2022-08-29T21:09:33.803Z,99.90
2022-08-29T21:12:02.626Z,99.90
2022-08-29T21:14:33.083Z,99.90
2022-08-29T21:17:02.165Z,99.90
2022-08-29T21:19:31.647Z,99.90
2022-08-29T21:22:02.783Z,99.90
2022-08-29T21:24:32.518Z,99.90
2022-08-29T21:27:01.510Z,99.90
2022-08-29T21:29:30.585Z,99.90
2022-08-29T21:32:00.935Z,99.90
2022-08-29T21:34:29.870Z,99.90
2022-08-29T21:36:58.565Z,99.90
2022-08-29T21:39:28.870Z,99.90
2022-08-29T21:42:01.400Z,99.90
2022-08-29T21:44:32.053Z,99.90
2022-08-29T21:47:02.611Z,99.90
2022-08-29T21:49:31.913Z,99.90
2022-08-29T21:52:01.014Z,99.90
2022-08-29T21:54:29.996Z,99.90
2022-08-29T21:56:58.752Z,99.90
2022-08-29T21:59:27.923Z,99.90
2022-08-29T22:01:57.062Z,99.90
2022-08-29T22:04:28.714Z,99.90
2022-08-29T22:06:59.526Z,99.90
2022-08-29T22:09:29.683Z,99.90
2022-08-29T22:11:58.399Z,99.90
2022-08-29T22:14:47.861Z,99.90
2022-08-29T22:17:16.242Z,99.90
2022-08-29T22:19:46.355Z,99.90
2022-08-29T22:22:15.042Z,99.90
2022-08-29T22:24:43.704Z,99.90
2022-08-29T22:27:12.330Z,99.90
2022-08-29T22:29:40.962Z,99.90
2022-08-29T22:32:09.838Z,99.90
2022-08-29T22:34:38.594Z,99.90
2022-08-29T22:37:09.151Z,99.90
2022-08-29T22:39:37.975Z,99.90
2022-08-29T22:42:07.172Z,99.90
2022-08-29T22:45:02.075Z,99.90
2022-08-29T22:47:25.771Z,99.90
2022-08-29T22:49:55.069Z,99.90
2022-08-29T22:52:25.334Z,99.90
2022-08-29T22:54:54.889Z,99.90
2022-08-29T22:57:23.865Z,99.90
2022-08-29T22:59:52.602Z,99.90
2022-08-29T23:02:22.481Z,99.90
2022-08-29T23:04:52.454Z,99.90
2022-08-29T23:07:21.645Z,99.90
2022-08-29T23:09:52.123Z,99.90
2022-08-29T23:12:22.198Z,99.90
2022-08-29T23:14:51.404Z,99.90
2022-08-29T23:17:20.689Z,99.90
2022-08-29T23:19:49.898Z,99.90
2022-08-29T23:22:19.216Z,99.90
2022-08-29T23:24:58.484Z,99.90
2022-08-29T23:27:31.192Z,99.90
2022-08-29T23:30:01.048Z,99.90
2022-08-29T23:32:30.498Z,99.90
2022-08-29T23:34:59.343Z,99.90
2022-08-29T23:37:28.342Z,99.90
2022-08-29T23:39:57.232Z,99.90
2022-08-29T23:42:26.108Z,99.90
2022-08-29T23:44:56.992Z,99.90
2022-08-29T23:47:25.746Z,99.90
2022-08-29T23:49:54.658Z,99.90
2022-08-29T23:52:23.517Z,99.90
2022-08-29T23:54:53.043Z,99.90
2022-08-29T23:57:21.806Z,99.90
